sensor_id;sensor_type;location;lat;lon;timestamp;P1;durP1;ratioP1;P2;durP2;ratioP2
85295;SDS011;76389;43.958;2.882;2024-03-23T00:53:49;5.35;;;2.10;;
85295;SDS011;76389;43.958;2.882;2024-03-23T00:56:15;6.65;;;1.90;;
85295;SDS011;76389;43.958;2.882;2024-03-23T00:58:41;5.68;;;2.17;;
85295;SDS011;76389;43.958;2.882;2024-03-23T01:01:07;5.72;;;1.98;;
85295;SDS011;76389;43.958;2.882;2024-03-23T01:03:33;5.10;;;2.00;;
85295;SDS011;76389;43.958;2.882;2024-03-23T01:06:00;6.25;;;2.05;;
85295;SDS011;76389;43.958;2.882;2024-03-23T01:08:26;5.50;;;1.90;;
85295;SDS011;76389;43.958;2.882;2024-03-23T01:10:56;6.13;;;2.42;;
85295;SDS011;76389;43.958;2.882;2024-03-23T01:13:22;6.47;;;2.03;;
85295;SDS011;76389;43.958;2.882;2024-03-23T01:15:49;4.97;;;1.77;;
85295;SDS011;76389;43.958;2.882;2024-03-23T01:18:17;6.07;;;2.08;;
85295;SDS011;76389;43.958;2.882;2024-03-23T01:20:44;5.07;;;1.83;;
85295;SDS011;76389;43.958;2.882;2024-03-23T01:23:11;5.53;;;1.90;;
85295;SDS011;76389;43.958;2.882;2024-03-23T01:25:37;5.65;;;1.88;;
85295;SDS011;76389;43.958;2.882;2024-03-23T01:28:03;5.82;;;2.28;;
85295;SDS011;76389;43.958;2.882;2024-03-23T01:30:29;9.68;;;1.98;;
85295;SDS011;76389;43.958;2.882;2024-03-23T01:32:56;6.45;;;1.65;;
85295;SDS011;76389;43.958;2.882;2024-03-23T01:35:22;4.85;;;1.70;;
85295;SDS011;76389;43.958;2.882;2024-03-23T01:37:48;4.40;;;1.73;;
85295;SDS011;76389;43.958;2.882;2024-03-23T01:40:16;8.60;;;1.52;;
85295;SDS011;76389;43.958;2.882;2024-03-23T01:42:42;11.80;;;2.47;;
85295;SDS011;76389;43.958;2.882;2024-03-23T01:45:08;5.75;;;1.63;;
85295;SDS011;76389;43.958;2.882;2024-03-23T01:47:35;3.97;;;1.80;;
85295;SDS011;76389;43.958;2.882;2024-03-23T01:50:01;4.53;;;1.65;;
85295;SDS011;76389;43.958;2.882;2024-03-23T01:52:28;8.25;;;2.17;;
85295;SDS011;76389;43.958;2.882;2024-03-23T01:54:54;5.47;;;1.52;;
85295;SDS011;76389;43.958;2.882;2024-03-23T01:57:20;7.65;;;2.38;;
85295;SDS011;76389;43.958;2.882;2024-03-23T01:59:46;4.28;;;1.60;;
85295;SDS011;76389;43.958;2.882;2024-03-23T02:02:12;5.97;;;2.10;;
85295;SDS011;76389;43.958;2.882;2024-03-23T02:04:39;4.80;;;1.92;;
85295;SDS011;76389;43.958;2.882;2024-03-23T02:07:06;7.22;;;1.98;;
85295;SDS011;76389;43.958;2.882;2024-03-23T02:09:33;4.97;;;1.65;;
85295;SDS011;76389;43.958;2.882;2024-03-23T02:11:59;5.45;;;1.88;;
85295;SDS011;76389;43.958;2.882;2024-03-23T02:14:27;7.18;;;1.85;;
85295;SDS011;76389;43.958;2.882;2024-03-23T02:16:54;6.40;;;1.73;;
85295;SDS011;76389;43.958;2.882;2024-03-23T02:19:20;4.63;;;1.83;;
85295;SDS011;76389;43.958;2.882;2024-03-23T02:21:46;5.72;;;1.65;;
85295;SDS011;76389;43.958;2.882;2024-03-23T02:24:12;4.65;;;1.48;;
85295;SDS011;76389;43.958;2.882;2024-03-23T02:26:39;5.82;;;1.90;;
85295;SDS011;76389;43.958;2.882;2024-03-23T02:29:05;5.28;;;2.05;;
85295;SDS011;76389;43.958;2.882;2024-03-23T02:31:31;7.25;;;2.30;;
85295;SDS011;76389;43.958;2.882;2024-03-23T02:33:57;6.78;;;1.92;;
85295;SDS011;76389;43.958;2.882;2024-03-23T02:36:23;5.53;;;2.10;;
85295;SDS011;76389;43.958;2.882;2024-03-23T02:38:49;5.85;;;2.25;;
85295;SDS011;76389;43.958;2.882;2024-03-23T02:41:15;6.00;;;1.98;;
85295;SDS011;76389;43.958;2.882;2024-03-23T02:43:48;6.07;;;2.05;;
85295;SDS011;76389;43.958;2.882;2024-03-23T02:46:16;6.25;;;2.25;;
85295;SDS011;76389;43.958;2.882;2024-03-23T02:48:42;6.50;;;2.25;;
85295;SDS011;76389;43.958;2.882;2024-03-23T02:51:08;7.25;;;2.28;;
85295;SDS011;76389;43.958;2.882;2024-03-23T02:53:34;6.82;;;1.75;;
85295;SDS011;76389;43.958;2.882;2024-03-23T02:56:00;10.80;;;2.47;;
85295;SDS011;76389;43.958;2.882;2024-03-23T02:58:26;6.32;;;2.38;;
85295;SDS011;76389;43.958;2.882;2024-03-23T03:00:52;5.45;;;1.80;;
85295;SDS011;76389;43.958;2.882;2024-03-23T03:03:18;4.68;;;1.50;;
85295;SDS011;76389;43.958;2.882;2024-03-23T03:05:44;5.38;;;1.90;;
85295;SDS011;76389;43.958;2.882;2024-03-23T03:08:10;6.97;;;2.47;;
85295;SDS011;76389;43.958;2.882;2024-03-23T03:10:36;8.07;;;1.92;;
85295;SDS011;76389;43.958;2.882;2024-03-23T03:13:03;4.00;;;1.90;;
85295;SDS011;76389;43.958;2.882;2024-03-23T03:15:29;6.15;;;2.20;;
85295;SDS011;76389;43.958;2.882;2024-03-23T03:17:55;7.45;;;2.03;;
85295;SDS011;76389;43.958;2.882;2024-03-23T03:20:21;7.20;;;2.00;;
85295;SDS011;76389;43.958;2.882;2024-03-23T03:22:49;6.70;;;2.20;;
85295;SDS011;76389;43.958;2.882;2024-03-23T03:25:15;6.90;;;1.85;;
85295;SDS011;76389;43.958;2.882;2024-03-23T03:27:41;8.65;;;2.10;;
85295;SDS011;76389;43.958;2.882;2024-03-23T03:30:07;6.25;;;2.05;;
85295;SDS011;76389;43.958;2.882;2024-03-23T03:32:34;5.28;;;1.88;;
85295;SDS011;76389;43.958;2.882;2024-03-23T03:35:00;5.75;;;2.03;;
85295;SDS011;76389;43.958;2.882;2024-03-23T03:37:27;6.55;;;2.30;;
85295;SDS011;76389;43.958;2.882;2024-03-23T03:39:53;6.65;;;2.70;;
85295;SDS011;76389;43.958;2.882;2024-03-23T03:42:19;8.93;;;2.20;;
85295;SDS011;76389;43.958;2.882;2024-03-23T03:44:45;7.32;;;2.13;;
85295;SDS011;76389;43.958;2.882;2024-03-23T03:47:12;8.25;;;2.40;;
85295;SDS011;76389;43.958;2.882;2024-03-23T03:49:38;8.90;;;2.30;;
85295;SDS011;76389;43.958;2.882;2024-03-23T03:52:04;6.13;;;2.30;;
85295;SDS011;76389;43.958;2.882;2024-03-23T03:54:30;8.40;;;2.55;;
85295;SDS011;76389;43.958;2.882;2024-03-23T03:56:56;6.53;;;2.55;;
85295;SDS011;76389;43.958;2.882;2024-03-23T03:59:23;8.52;;;2.58;;
85295;SDS011;76389;43.958;2.882;2024-03-23T04:01:49;5.80;;;2.53;;
85295;SDS011;76389;43.958;2.882;2024-03-23T04:04:15;6.43;;;2.47;;
85295;SDS011;76389;43.958;2.882;2024-03-23T04:06:42;9.65;;;2.38;;
85295;SDS011;76389;43.958;2.882;2024-03-23T04:09:09;5.88;;;2.25;;
85295;SDS011;76389;43.958;2.882;2024-03-23T04:11:35;6.88;;;2.72;;
85295;SDS011;76389;43.958;2.882;2024-03-23T04:14:01;5.85;;;2.63;;
85295;SDS011;76389;43.958;2.882;2024-03-23T04:16:29;8.80;;;2.25;;
85295;SDS011;76389;43.958;2.882;2024-03-23T04:18:57;7.47;;;2.78;;
85295;SDS011;76389;43.958;2.882;2024-03-23T04:21:24;6.25;;;2.40;;
85295;SDS011;76389;43.958;2.882;2024-03-23T04:23:50;6.47;;;2.58;;
85295;SDS011;76389;43.958;2.882;2024-03-23T04:26:16;9.88;;;3.30;;
85295;SDS011;76389;43.958;2.882;2024-03-23T04:28:43;8.38;;;3.25;;
85295;SDS011;76389;43.958;2.882;2024-03-23T04:31:09;13.95;;;3.40;;
85295;SDS011;76389;43.958;2.882;2024-03-23T04:33:35;8.90;;;3.55;;
85295;SDS011;76389;43.958;2.882;2024-03-23T04:36:01;6.93;;;3.13;;
85295;SDS011;76389;43.958;2.882;2024-03-23T04:38:28;10.63;;;2.90;;
85295;SDS011;76389;43.958;2.882;2024-03-23T04:40:56;7.22;;;3.00;;
85295;SDS011;76389;43.958;2.882;2024-03-23T04:43:22;6.97;;;2.67;;
85295;SDS011;76389;43.958;2.882;2024-03-23T04:45:48;7.20;;;2.67;;
85295;SDS011;76389;43.958;2.882;2024-03-23T04:48:15;8.70;;;2.97;;
85295;SDS011;76389;43.958;2.882;2024-03-23T04:50:41;6.72;;;3.40;;
85295;SDS011;76389;43.958;2.882;2024-03-23T04:53:07;10.00;;;2.80;;
85295;SDS011;76389;43.958;2.882;2024-03-23T04:55:33;5.25;;;2.00;;
85295;SDS011;76389;43.958;2.882;2024-03-23T04:57:59;5.00;;;1.80;;
85295;SDS011;76389;43.958;2.882;2024-03-23T05:00:25;4.03;;;1.38;;
85295;SDS011;76389;43.958;2.882;2024-03-23T05:02:51;5.35;;;2.15;;
85295;SDS011;76389;43.958;2.882;2024-03-23T05:05:18;4.28;;;1.75;;
85295;SDS011;76389;43.958;2.882;2024-03-23T05:07:44;5.95;;;1.90;;
85295;SDS011;76389;43.958;2.882;2024-03-23T05:10:10;4.25;;;1.52;;
85295;SDS011;76389;43.958;2.882;2024-03-23T05:12:39;3.38;;;1.40;;
85295;SDS011;76389;43.958;2.882;2024-03-23T05:15:05;3.42;;;1.52;;
85295;SDS011;76389;43.958;2.882;2024-03-23T05:17:33;2.88;;;1.00;;
85295;SDS011;76389;43.958;2.882;2024-03-23T05:19:59;2.80;;;1.02;;
85295;SDS011;76389;43.958;2.882;2024-03-23T05:22:25;2.10;;;0.93;;
85295;SDS011;76389;43.958;2.882;2024-03-23T05:24:52;3.13;;;1.15;;
85295;SDS011;76389;43.958;2.882;2024-03-23T05:27:19;3.95;;;1.33;;
85295;SDS011;76389;43.958;2.882;2024-03-23T05:29:45;3.72;;;1.23;;
85295;SDS011;76389;43.958;2.882;2024-03-23T05:32:12;5.90;;;1.98;;
85295;SDS011;76389;43.958;2.882;2024-03-23T05:34:38;2.22;;;0.85;;
85295;SDS011;76389;43.958;2.882;2024-03-23T05:37:04;4.80;;;1.02;;
85295;SDS011;76389;43.958;2.882;2024-03-23T05:39:31;5.15;;;1.33;;
85295;SDS011;76389;43.958;2.882;2024-03-23T05:41:57;1.70;;;0.63;;
85295;SDS011;76389;43.958;2.882;2024-03-23T05:44:23;4.78;;;1.60;;
85295;SDS011;76389;43.958;2.882;2024-03-23T05:46:49;2.60;;;1.08;;
85295;SDS011;76389;43.958;2.882;2024-03-23T05:49:15;4.88;;;1.65;;
85295;SDS011;76389;43.958;2.882;2024-03-23T05:51:42;3.95;;;1.40;;
85295;SDS011;76389;43.958;2.882;2024-03-23T05:54:09;5.57;;;1.85;;
85295;SDS011;76389;43.958;2.882;2024-03-23T05:56:35;3.90;;;1.70;;
85295;SDS011;76389;43.958;2.882;2024-03-23T05:59:01;7.40;;;1.70;;
85295;SDS011;76389;43.958;2.882;2024-03-23T06:01:28;4.90;;;1.35;;
85295;SDS011;76389;43.958;2.882;2024-03-23T06:03:57;5.22;;;1.95;;
85295;SDS011;76389;43.958;2.882;2024-03-23T06:06:24;3.88;;;1.63;;
85295;SDS011;76389;43.958;2.882;2024-03-23T06:08:50;5.40;;;1.75;;
85295;SDS011;76389;43.958;2.882;2024-03-23T06:11:16;5.70;;;1.80;;
85295;SDS011;76389;43.958;2.882;2024-03-23T06:13:42;5.10;;;1.85;;
85295;SDS011;76389;43.958;2.882;2024-03-23T06:16:08;2.90;;;1.10;;
85295;SDS011;76389;43.958;2.882;2024-03-23T06:18:34;6.93;;;1.75;;
85295;SDS011;76389;43.958;2.882;2024-03-23T06:21:00;6.32;;;1.92;;
85295;SDS011;76389;43.958;2.882;2024-03-23T06:23:26;4.05;;;1.60;;
85295;SDS011;76389;43.958;2.882;2024-03-23T06:25:52;4.15;;;1.92;;
85295;SDS011;76389;43.958;2.882;2024-03-23T06:28:18;4.03;;;1.65;;
85295;SDS011;76389;43.958;2.882;2024-03-23T06:30:46;3.88;;;1.48;;
85295;SDS011;76389;43.958;2.882;2024-03-23T06:33:12;5.88;;;1.92;;
85295;SDS011;76389;43.958;2.882;2024-03-23T06:35:38;6.88;;;2.03;;
85295;SDS011;76389;43.958;2.882;2024-03-23T06:38:04;4.00;;;1.30;;
85295;SDS011;76389;43.958;2.882;2024-03-23T06:40:31;8.15;;;2.10;;
85295;SDS011;76389;43.958;2.882;2024-03-23T06:42:57;4.50;;;1.73;;
85295;SDS011;76389;43.958;2.882;2024-03-23T06:45:23;5.35;;;1.33;;
85295;SDS011;76389;43.958;2.882;2024-03-23T06:47:49;3.67;;;1.52;;
85295;SDS011;76389;43.958;2.882;2024-03-23T06:50:16;2.92;;;1.08;;
85295;SDS011;76389;43.958;2.882;2024-03-23T06:52:43;6.00;;;1.58;;
85295;SDS011;76389;43.958;2.882;2024-03-23T06:55:09;4.47;;;1.60;;
85295;SDS011;76389;43.958;2.882;2024-03-23T06:57:35;3.67;;;1.67;;
85295;SDS011;76389;43.958;2.882;2024-03-23T07:00:02;4.20;;;1.63;;
85295;SDS011;76389;43.958;2.882;2024-03-23T07:02:29;4.82;;;1.30;;
85295;SDS011;76389;43.958;2.882;2024-03-23T07:04:55;3.03;;;1.20;;
85295;SDS011;76389;43.958;2.882;2024-03-23T07:07:22;4.45;;;1.58;;
85295;SDS011;76389;43.958;2.882;2024-03-23T07:09:48;3.80;;;1.38;;
85295;SDS011;76389;43.958;2.882;2024-03-23T07:12:14;3.08;;;1.02;;
85295;SDS011;76389;43.958;2.882;2024-03-23T07:14:40;3.47;;;1.13;;
85295;SDS011;76389;43.958;2.882;2024-03-23T07:17:06;2.65;;;0.65;;
85295;SDS011;76389;43.958;2.882;2024-03-23T07:19:32;1.83;;;0.73;;
85295;SDS011;76389;43.958;2.882;2024-03-23T07:21:58;2.55;;;0.75;;
85295;SDS011;76389;43.958;2.882;2024-03-23T07:24:24;3.63;;;1.60;;
85295;SDS011;76389;43.958;2.882;2024-03-23T07:26:50;2.75;;;1.00;;
85295;SDS011;76389;43.958;2.882;2024-03-23T07:29:19;2.45;;;0.90;;
85295;SDS011;76389;43.958;2.882;2024-03-23T07:31:45;2.60;;;0.73;;
85295;SDS011;76389;43.958;2.882;2024-03-23T07:34:11;2.00;;;0.88;;
85295;SDS011;76389;43.958;2.882;2024-03-23T07:36:39;1.63;;;0.52;;
85295;SDS011;76389;43.958;2.882;2024-03-23T07:39:05;2.50;;;0.90;;
85295;SDS011;76389;43.958;2.882;2024-03-23T07:41:31;3.22;;;1.13;;
85295;SDS011;76389;43.958;2.882;2024-03-23T07:43:57;2.10;;;0.70;;
85295;SDS011;76389;43.958;2.882;2024-03-23T07:46:23;2.22;;;0.60;;
85295;SDS011;76389;43.958;2.882;2024-03-23T07:48:51;1.77;;;0.52;;
85295;SDS011;76389;43.958;2.882;2024-03-23T07:51:18;2.03;;;0.60;;
85295;SDS011;76389;43.958;2.882;2024-03-23T07:53:48;3.13;;;0.77;;
85295;SDS011;76389;43.958;2.882;2024-03-23T07:56:15;2.08;;;0.82;;
85295;SDS011;76389;43.958;2.882;2024-03-23T07:58:41;2.00;;;0.65;;
85295;SDS011;76389;43.958;2.882;2024-03-23T08:01:08;1.92;;;0.73;;
85295;SDS011;76389;43.958;2.882;2024-03-23T08:03:36;1.73;;;0.75;;
85295;SDS011;76389;43.958;2.882;2024-03-23T08:08:38;1.50;;;0.50;;
85295;SDS011;76389;43.958;2.882;2024-03-23T08:11:04;1.80;;;0.40;;
85295;SDS011;76389;43.958;2.882;2024-03-23T08:13:31;1.38;;;0.43;;
85295;SDS011;76389;43.958;2.882;2024-03-23T08:15:57;0.52;;;0.20;;
85295;SDS011;76389;43.958;2.882;2024-03-23T08:18:24;1.92;;;0.50;;
85295;SDS011;76389;43.958;2.882;2024-03-23T08:20:56;0.47;;;0.13;;
85295;SDS011;76389;43.958;2.882;2024-03-23T08:23:23;1.23;;;0.28;;
85295;SDS011;76389;43.958;2.882;2024-03-23T08:25:50;0.90;;;0.13;;
85295;SDS011;76389;43.958;2.882;2024-03-23T08:28:16;0.90;;;0.22;;
85295;SDS011;76389;43.958;2.882;2024-03-23T08:30:43;0.85;;;0.25;;
85295;SDS011;76389;43.958;2.882;2024-03-23T08:33:09;0.85;;;0.30;;
85295;SDS011;76389;43.958;2.882;2024-03-23T08:35:35;3.55;;;0.30;;
85295;SDS011;76389;43.958;2.882;2024-03-23T08:38:01;0.75;;;0.22;;
85295;SDS011;76389;43.958;2.882;2024-03-23T08:40:27;4.30;;;0.73;;
85295;SDS011;76389;43.958;2.882;2024-03-23T08:42:53;2.53;;;0.60;;
85295;SDS011;76389;43.958;2.882;2024-03-23T08:45:19;2.17;;;0.50;;
85295;SDS011;76389;43.958;2.882;2024-03-23T08:47:45;2.75;;;0.40;;
85295;SDS011;76389;43.958;2.882;2024-03-23T08:50:11;0.88;;;0.30;;
85295;SDS011;76389;43.958;2.882;2024-03-23T08:52:37;2.35;;;0.30;;
85295;SDS011;76389;43.958;2.882;2024-03-23T08:55:03;1.38;;;0.45;;
85295;SDS011;76389;43.958;2.882;2024-03-23T08:57:30;0.50;;;0.10;;
85295;SDS011;76389;43.958;2.882;2024-03-23T08:59:56;1.20;;;0.20;;
85295;SDS011;76389;43.958;2.882;2024-03-23T09:02:22;0.80;;;0.20;;
85295;SDS011;76389;43.958;2.882;2024-03-23T09:04:48;0.68;;;0.28;;
85295;SDS011;76389;43.958;2.882;2024-03-23T09:07:14;0.50;;;0.22;;
85295;SDS011;76389;43.958;2.882;2024-03-23T09:09:40;0.80;;;0.22;;
85295;SDS011;76389;43.958;2.882;2024-03-23T09:12:06;1.48;;;0.32;;
85295;SDS011;76389;43.958;2.882;2024-03-23T09:14:33;1.67;;;0.30;;
85295;SDS011;76389;43.958;2.882;2024-03-23T09:16:59;1.77;;;0.60;;
85295;SDS011;76389;43.958;2.882;2024-03-23T09:19:28;1.88;;;0.35;;
85295;SDS011;76389;43.958;2.882;2024-03-23T09:21:54;2.20;;;0.60;;
85295;SDS011;76389;43.958;2.882;2024-03-23T09:24:20;3.17;;;0.32;;
85295;SDS011;76389;43.958;2.882;2024-03-23T09:26:46;1.33;;;0.45;;
85295;SDS011;76389;43.958;2.882;2024-03-23T09:29:14;1.60;;;0.52;;
85295;SDS011;76389;43.958;2.882;2024-03-23T09:31:40;0.90;;;0.20;;
85295;SDS011;76389;43.958;2.882;2024-03-23T09:34:06;0.85;;;0.28;;
85295;SDS011;76389;43.958;2.882;2024-03-23T09:36:32;1.85;;;0.30;;
85295;SDS011;76389;43.958;2.882;2024-03-23T09:38:58;0.82;;;0.28;;
85295;SDS011;76389;43.958;2.882;2024-03-23T09:41:24;1.77;;;0.28;;
85295;SDS011;76389;43.958;2.882;2024-03-23T09:43:53;1.10;;;0.40;;
85295;SDS011;76389;43.958;2.882;2024-03-23T09:46:20;0.73;;;0.30;;
85295;SDS011;76389;43.958;2.882;2024-03-23T09:48:46;1.50;;;0.30;;
85295;SDS011;76389;43.958;2.882;2024-03-23T09:51:12;1.73;;;0.30;;
85295;SDS011;76389;43.958;2.882;2024-03-23T09:53:38;0.45;;;0.10;;
85295;SDS011;76389;43.958;2.882;2024-03-23T09:56:05;0.73;;;0.28;;
85295;SDS011;76389;43.958;2.882;2024-03-23T09:58:31;0.52;;;0.20;;
85295;SDS011;76389;43.958;2.882;2024-03-23T10:00:58;0.73;;;0.32;;
85295;SDS011;76389;43.958;2.882;2024-03-23T10:03:24;2.63;;;0.65;;
85295;SDS011;76389;43.958;2.882;2024-03-23T10:06:01;1.83;;;0.20;;
85295;SDS011;76389;43.958;2.882;2024-03-23T10:08:28;2.28;;;0.47;;
85295;SDS011;76389;43.958;2.882;2024-03-23T10:10:54;1.00;;;0.20;;
85295;SDS011;76389;43.958;2.882;2024-03-23T10:13:23;1.02;;;0.50;;
85295;SDS011;76389;43.958;2.882;2024-03-23T10:15:54;1.17;;;0.20;;
85295;SDS011;76389;43.958;2.882;2024-03-23T10:18:22;1.60;;;0.40;;
85295;SDS011;76389;43.958;2.882;2024-03-23T10:20:51;1.38;;;0.40;;
85295;SDS011;76389;43.958;2.882;2024-03-23T10:23:32;2.45;;;0.30;;
85295;SDS011;76389;43.958;2.882;2024-03-23T10:26:14;0.73;;;0.22;;
85295;SDS011;76389;43.958;2.882;2024-03-23T10:28:50;2.13;;;0.20;;
85295;SDS011;76389;43.958;2.882;2024-03-23T10:31:18;1.17;;;0.25;;
85295;SDS011;76389;43.958;2.882;2024-03-23T10:33:45;3.22;;;0.40;;
85295;SDS011;76389;43.958;2.882;2024-03-23T10:36:12;1.15;;;0.17;;
85295;SDS011;76389;43.958;2.882;2024-03-23T10:38:40;1.73;;;0.32;;
85295;SDS011;76389;43.958;2.882;2024-03-23T10:41:07;0.90;;;0.20;;
85295;SDS011;76389;43.958;2.882;2024-03-23T10:43:34;3.13;;;0.38;;
85295;SDS011;76389;43.958;2.882;2024-03-23T10:46:02;1.30;;;0.13;;
85295;SDS011;76389;43.958;2.882;2024-03-23T10:48:28;0.82;;;0.10;;
85295;SDS011;76389;43.958;2.882;2024-03-23T10:50:55;0.70;;;0.20;;
85295;SDS011;76389;43.958;2.882;2024-03-23T10:53:22;2.00;;;0.40;;
85295;SDS011;76389;43.958;2.882;2024-03-23T10:55:51;2.13;;;0.38;;
85295;SDS011;76389;43.958;2.882;2024-03-23T10:58:19;4.00;;;1.05;;
85295;SDS011;76389;43.958;2.882;2024-03-23T11:00:49;1.33;;;0.20;;
85295;SDS011;76389;43.958;2.882;2024-03-23T11:03:31;1.77;;;0.30;;
85295;SDS011;76389;43.958;2.882;2024-03-23T11:06:00;1.10;;;0.13;;
85295;SDS011;76389;43.958;2.882;2024-03-23T11:08:30;2.63;;;0.30;;
85295;SDS011;76389;43.958;2.882;2024-03-23T11:13:42;2.45;;;0.40;;
85295;SDS011;76389;43.958;2.882;2024-03-23T11:16:12;2.58;;;0.52;;
85295;SDS011;76389;43.958;2.882;2024-03-23T11:18:43;5.60;;;0.52;;
85295;SDS011;76389;43.958;2.882;2024-03-23T11:21:10;2.05;;;0.40;;
85295;SDS011;76389;43.958;2.882;2024-03-23T11:23:36;1.50;;;0.25;;
85295;SDS011;76389;43.958;2.882;2024-03-23T11:26:05;1.88;;;0.40;;
85295;SDS011;76389;43.958;2.882;2024-03-23T11:28:32;2.42;;;0.30;;
85295;SDS011;76389;43.958;2.882;2024-03-23T11:30:58;2.83;;;0.43;;
85295;SDS011;76389;43.958;2.882;2024-03-23T11:33:25;5.32;;;0.40;;
85295;SDS011;76389;43.958;2.882;2024-03-23T11:35:51;3.25;;;0.75;;
85295;SDS011;76389;43.958;2.882;2024-03-23T11:38:17;2.08;;;0.22;;
85295;SDS011;76389;43.958;2.882;2024-03-23T11:40:45;2.08;;;0.22;;
85295;SDS011;76389;43.958;2.882;2024-03-23T11:43:14;2.40;;;0.25;;
85295;SDS011;76389;43.958;2.882;2024-03-23T11:45:44;1.95;;;0.28;;
85295;SDS011;76389;43.958;2.882;2024-03-23T11:48:12;2.28;;;0.40;;
85295;SDS011;76389;43.958;2.882;2024-03-23T11:50:40;1.52;;;0.35;;
85295;SDS011;76389;43.958;2.882;2024-03-23T11:53:08;1.35;;;0.32;;
85295;SDS011;76389;43.958;2.882;2024-03-23T11:55:42;5.82;;;0.60;;
85295;SDS011;76389;43.958;2.882;2024-03-23T11:58:09;3.38;;;0.40;;
85295;SDS011;76389;43.958;2.882;2024-03-23T12:00:36;9.45;;;0.35;;
85295;SDS011;76389;43.958;2.882;2024-03-23T12:03:02;4.75;;;0.60;;
85295;SDS011;76389;43.958;2.882;2024-03-23T12:05:29;2.05;;;0.30;;
85295;SDS011;76389;43.958;2.882;2024-03-23T12:07:55;4.15;;;0.60;;
85295;SDS011;76389;43.958;2.882;2024-03-23T12:10:40;2.63;;;0.50;;
85295;SDS011;76389;43.958;2.882;2024-03-23T12:13:06;2.83;;;0.60;;
85295;SDS011;76389;43.958;2.882;2024-03-23T12:15:33;2.15;;;0.43;;
85295;SDS011;76389;43.958;2.882;2024-03-23T12:18:07;3.22;;;0.40;;
85295;SDS011;76389;43.958;2.882;2024-03-23T12:20:34;3.97;;;0.50;;
85295;SDS011;76389;43.958;2.882;2024-03-23T12:23:06;3.83;;;0.60;;
85295;SDS011;76389;43.958;2.882;2024-03-23T12:25:34;4.10;;;0.60;;
85295;SDS011;76389;43.958;2.882;2024-03-23T12:28:01;6.00;;;0.30;;
85295;SDS011;76389;43.958;2.882;2024-03-23T12:30:27;3.00;;;0.40;;
85295;SDS011;76389;43.958;2.882;2024-03-23T12:32:54;1.85;;;0.20;;
85295;SDS011;76389;43.958;2.882;2024-03-23T12:35:20;3.42;;;0.40;;
85295;SDS011;76389;43.958;2.882;2024-03-23T12:37:46;2.42;;;0.30;;
85295;SDS011;76389;43.958;2.882;2024-03-23T12:40:12;1.73;;;0.35;;
85295;SDS011;76389;43.958;2.882;2024-03-23T12:42:38;1.58;;;0.22;;
85295;SDS011;76389;43.958;2.882;2024-03-23T12:45:04;2.53;;;0.40;;
85295;SDS011;76389;43.958;2.882;2024-03-23T12:47:31;4.10;;;0.40;;
85295;SDS011;76389;43.958;2.882;2024-03-23T12:49:57;4.68;;;0.38;;
85295;SDS011;76389;43.958;2.882;2024-03-23T12:52:23;4.43;;;0.82;;
85295;SDS011;76389;43.958;2.882;2024-03-23T12:54:54;2.92;;;0.25;;
85295;SDS011;76389;43.958;2.882;2024-03-23T12:57:22;3.30;;;0.40;;
85295;SDS011;76389;43.958;2.882;2024-03-23T12:59:51;2.38;;;0.43;;
85295;SDS011;76389;43.958;2.882;2024-03-23T13:02:19;3.78;;;0.50;;
85295;SDS011;76389;43.958;2.882;2024-03-23T13:04:46;1.60;;;0.20;;
85295;SDS011;76389;43.958;2.882;2024-03-23T13:07:15;3.15;;;0.30;;
85295;SDS011;76389;43.958;2.882;2024-03-23T13:09:41;1.95;;;0.43;;
85295;SDS011;76389;43.958;2.882;2024-03-23T13:12:07;0.52;;;0.05;;
85295;SDS011;76389;43.958;2.882;2024-03-23T13:14:34;0.57;;;0.13;;
85295;SDS011;76389;43.958;2.882;2024-03-23T13:17:00;2.15;;;0.57;;
85295;SDS011;76389;43.958;2.882;2024-03-23T13:19:27;4.40;;;0.30;;
85295;SDS011;76389;43.958;2.882;2024-03-23T13:21:56;4.50;;;0.40;;
85295;SDS011;76389;43.958;2.882;2024-03-23T13:24:24;3.92;;;0.20;;
85295;SDS011;76389;43.958;2.882;2024-03-23T13:26:51;3.80;;;0.40;;
85295;SDS011;76389;43.958;2.882;2024-03-23T13:29:18;1.55;;;0.20;;
85295;SDS011;76389;43.958;2.882;2024-03-23T13:31:45;1.00;;;0.30;;
85295;SDS011;76389;43.958;2.882;2024-03-23T13:34:12;2.08;;;0.20;;
85295;SDS011;76389;43.958;2.882;2024-03-23T13:39:08;1.35;;;0.32;;
85295;SDS011;76389;43.958;2.882;2024-03-23T13:41:38;2.17;;;0.38;;
85295;SDS011;76389;43.958;2.882;2024-03-23T13:44:05;2.03;;;0.38;;
85295;SDS011;76389;43.958;2.882;2024-03-23T13:46:32;4.38;;;0.40;;
85295;SDS011;76389;43.958;2.882;2024-03-23T13:48:58;2.78;;;0.47;;
85295;SDS011;76389;43.958;2.882;2024-03-23T13:51:25;2.92;;;0.45;;
85295;SDS011;76389;43.958;2.882;2024-03-23T13:53:53;2.22;;;0.20;;
85295;SDS011;76389;43.958;2.882;2024-03-23T13:56:20;4.40;;;0.43;;
85295;SDS011;76389;43.958;2.882;2024-03-23T13:58:46;2.40;;;0.52;;
85295;SDS011;76389;43.958;2.882;2024-03-23T14:01:13;1.55;;;0.40;;
85295;SDS011;76389;43.958;2.882;2024-03-23T14:03:40;4.22;;;0.30;;
85295;SDS011;76389;43.958;2.882;2024-03-23T14:06:06;1.13;;;0.20;;
85295;SDS011;76389;43.958;2.882;2024-03-23T14:08:34;1.58;;;0.20;;
85295;SDS011;76389;43.958;2.882;2024-03-23T14:11:02;1.42;;;0.22;;
85295;SDS011;76389;43.958;2.882;2024-03-23T14:13:29;0.68;;;0.20;;
85295;SDS011;76389;43.958;2.882;2024-03-23T14:15:55;1.05;;;0.28;;
85295;SDS011;76389;43.958;2.882;2024-03-23T14:18:22;2.35;;;0.50;;
85295;SDS011;76389;43.958;2.882;2024-03-23T14:20:48;1.98;;;0.35;;
85295;SDS011;76389;43.958;2.882;2024-03-23T14:23:15;3.08;;;0.40;;
85295;SDS011;76389;43.958;2.882;2024-03-23T14:25:41;3.15;;;0.47;;
85295;SDS011;76389;43.958;2.882;2024-03-23T14:28:07;1.50;;;0.25;;
85295;SDS011;76389;43.958;2.882;2024-03-23T14:30:40;2.30;;;0.40;;
85295;SDS011;76389;43.958;2.882;2024-03-23T14:33:07;1.30;;;0.38;;
85295;SDS011;76389;43.958;2.882;2024-03-23T14:35:34;1.85;;;0.50;;
85295;SDS011;76389;43.958;2.882;2024-03-23T14:38:00;1.60;;;0.28;;
85295;SDS011;76389;43.958;2.882;2024-03-23T14:40:26;2.13;;;0.20;;
85295;SDS011;76389;43.958;2.882;2024-03-23T14:42:53;3.72;;;0.70;;
85295;SDS011;76389;43.958;2.882;2024-03-23T14:45:20;2.58;;;0.50;;
85295;SDS011;76389;43.958;2.882;2024-03-23T14:47:47;3.05;;;0.32;;
85295;SDS011;76389;43.958;2.882;2024-03-23T14:50:13;0.35;;;0.10;;
85295;SDS011;76389;43.958;2.882;2024-03-23T14:52:44;0.65;;;0.15;;
85295;SDS011;76389;43.958;2.882;2024-03-23T14:55:11;0.82;;;0.25;;
85295;SDS011;76389;43.958;2.882;2024-03-23T14:57:38;3.03;;;0.20;;
85295;SDS011;76389;43.958;2.882;2024-03-23T15:00:07;1.80;;;0.30;;
85295;SDS011;76389;43.958;2.882;2024-03-23T15:02:36;1.38;;;0.28;;
85295;SDS011;76389;43.958;2.882;2024-03-23T15:05:02;2.85;;;0.20;;
85295;SDS011;76389;43.958;2.882;2024-03-23T15:07:31;4.03;;;0.50;;
85295;SDS011;76389;43.958;2.882;2024-03-23T15:09:57;1.67;;;0.32;;
85295;SDS011;76389;43.958;2.882;2024-03-23T15:12:23;3.08;;;0.40;;
85295;SDS011;76389;43.958;2.882;2024-03-23T15:14:49;1.90;;;0.40;;
85295;SDS011;76389;43.958;2.882;2024-03-23T15:17:15;0.98;;;0.20;;
85295;SDS011;76389;43.958;2.882;2024-03-23T15:19:41;1.77;;;0.28;;
85295;SDS011;76389;43.958;2.882;2024-03-23T15:22:08;2.22;;;0.30;;
85295;SDS011;76389;43.958;2.882;2024-03-23T15:24:34;0.68;;;0.20;;
85295;SDS011;76389;43.958;2.882;2024-03-23T15:27:02;1.02;;;0.22;;
85295;SDS011;76389;43.958;2.882;2024-03-23T15:29:28;2.03;;;0.45;;
85295;SDS011;76389;43.958;2.882;2024-03-23T15:31:54;2.22;;;0.30;;
85295;SDS011;76389;43.958;2.882;2024-03-23T15:34:21;2.65;;;0.45;;
85295;SDS011;76389;43.958;2.882;2024-03-23T15:36:48;3.60;;;0.40;;
85295;SDS011;76389;43.958;2.882;2024-03-23T15:39:18;1.00;;;0.17;;
85295;SDS011;76389;43.958;2.882;2024-03-23T15:41:45;1.10;;;0.22;;
85295;SDS011;76389;43.958;2.882;2024-03-23T15:44:11;5.28;;;0.20;;
85295;SDS011;76389;43.958;2.882;2024-03-23T15:46:38;2.10;;;0.30;;